Time;durP1;ratioP1;P1;durP2;ratioP2;P2;SDS_P1;SDS_P2;PMS_P1;PMS_P2;Temp;Humidity;BMP_temperature;BMP_pressure;BME280_temperature;BME280_humidity;BME280_pressure;Samples;Min_cycle;Max_cycle;Signal;HPM_P1;HPM_P2
2022/06/19 00:00:08;;;;;;;382.40;299.75;;;;;;;18.87;81.94;100003.88;411558;24;1306;-74
2022/06/19 00:00:18;;;;;;;381.27;289.83;;;;;;;18.87;81.78;100003.88;413596;23;937;-74
2022/06/19 00:00:29;;;;;;;380.08;283.25;;;;;;;18.88;81.92;100006.44;413851;23;897;-74
2022/06/19 00:00:39;;;;;;;378.90;284.57;;;;;;;18.89;82.20;99997.53;413731;23;877;-74
2022/06/19 00:00:49;;;;;;;378.30;287.67;;;;;;;18.88;81.99;100006.44;407778;24;1262;-74
2022/06/19 00:01:01;;;;;;;379.10;291.70;;;;;;;18.88;81.74;100003.78;409890;24;781;-74
2022/06/19 00:01:11;;;;;;;379.20;289.38;;;;;;;18.89;81.82;100001.97;409330;24;1891;-74
2022/06/19 00:01:22;;;;;;;374.60;282.38;;;;;;;18.90;82.12;100004.53;413765;23;1058;-74
2022/06/19 00:01:32;;;;;;;375.20;277.83;;;;;;;18.89;81.79;100002.84;411921;24;927;-74
2022/06/19 00:01:42;;;;;;;372.38;269.27;;;;;;;18.90;81.87;100004.53;411769;24;843;-74
2022/06/19 00:01:53;;;;;;;374.27;271.57;;;;;;;18.91;81.95;100000.91;411606;24;1527;-74
2022/06/19 00:02:03;;;;;;;373.70;272.27;;;;;;;18.90;81.90;100001.88;409918;24;1490;-74
2022/06/19 00:02:18;;;;;;;376.53;280.37;;;;;;;18.91;81.90;100000.91;409880;24;939;-74
2022/06/19 00:02:28;;;;;;;376.95;283.85;;;;;;;18.92;82.00;100007.06;409103;24;1026;-74
2022/06/19 00:02:39;;;;;;;378.90;283.07;;;;;;;18.91;81.92;100006.22;411703;24;1339;-74
2022/06/19 00:02:49;;;;;;;382.92;287.52;;;;;;;18.89;82.11;100004.63;411641;23;1187;-74
2022/06/19 00:03:01;;;;;;;381.70;286.53;;;;;;;18.87;82.20;100002.09;411808;24;910;-74
2022/06/19 00:03:18;;;;;;;381.30;289.85;;;;;;;18.88;82.12;100006.44;411712;24;1059;-74
2022/06/19 00:03:40;;;;;;;379.08;285.73;;;;;;;18.88;81.80;100006.44;409821;24;979;-74
2022/06/19 00:03:51;;;;;;;379.73;285.60;;;;;;;18.82;81.98;99998.91;411572;24;1103;-74
2022/06/19 00:04:03;;;;;;;384.20;299.85;;;;;;;18.80;82.37;100005.25;411776;24;853;-74
2022/06/19 00:04:15;;;;;;;381.85;293.40;;;;;;;18.76;82.46;100001.97;409826;24;853;-74
2022/06/19 00:04:26;;;;;;;376.52;279.38;;;;;;;18.73;82.50;100006.63;409806;24;866;-74
2022/06/19 00:04:36;;;;;;;373.07;264.47;;;;;;;18.74;82.77;100009.19;411723;24;1343;-74
2022/06/19 00:04:48;;;;;;;374.50;258.63;;;;;;;18.73;82.83;100004.81;411798;24;872;-74
2022/06/19 00:04:58;;;;;;;373.08;251.45;;;;;;;18.72;82.83;100011.09;411796;24;936;-74
2022/06/19 00:05:08;;;;;;;374.20;252.30;;;;;;;18.71;82.77;100003.22;411743;24;934;-74
2022/06/19 00:05:19;;;;;;;370.83;247.35;;;;;;;18.72;82.95;100000.47;411809;24;944;-74
2022/06/19 00:05:30;;;;;;;368.90;241.20;;;;;;;18.75;82.95;100008.22;411839;24;928;-74
2022/06/19 00:05:41;;;;;;;369.02;239.75;;;;;;;18.76;82.52;100001.13;411923;24;877;-74
2022/06/19 00:05:51;;;;;;;368.67;244.27;;;;;;;18.75;82.50;100002.91;409859;24;912;-74
2022/06/19 00:06:02;;;;;;;367.23;243.13;;;;;;;18.76;82.42;99999.31;411748;24;861;-74
2022/06/19 00:06:13;;;;;;;366.73;240.65;;;;;;;18.77;82.55;100003.66;411498;24;1198;-74
2022/06/19 00:06:23;;;;;;;367.73;241.73;;;;;;;18.79;82.33;100000.91;411731;24;1227;-74
2022/06/19 00:06:34;;;;;;;371.48;245.98;;;;;;;18.80;82.41;100003.47;411765;24;955;-74
2022/06/19 00:06:45;;;;;;;373.60;242.82;;;;;;;18.79;82.48;99999.09;411917;24;952;-74
2022/06/19 00:06:56;;;;;;;368.33;232.57;;;;;;;18.84;82.23;100006.75;409744;24;1221;-74
2022/06/19 00:07:07;;;;;;;365.88;232.63;;;;;;;18.84;82.40;100004.09;411559;24;1289;-74
2022/06/19 00:07:17;;;;;;;364.77;234.20;;;;;;;18.84;82.13;100004.94;411718;24;856;-74
2022/06/19 00:07:28;;;;;;;365.02;234.85;;;;;;;18.86;82.28;100003.03;413683;23;1478;-74
2022/06/19 00:07:38;;;;;;;367.03;236.30;;;;;;;18.86;82.07;100008.34;411901;24;824;-74
2022/06/19 00:07:48;;;;;;;367.42;240.18;;;;;;;18.87;82.27;100010.03;409692;24;1384;-74
2022/06/19 00:07:59;;;;;;;368.17;241.80;;;;;;;18.86;82.04;100002.19;411733;24;960;-74
2022/06/19 00:08:09;;;;;;;368.35;240.23;;;;;;;18.88;82.15;100006.44;411700;24;913;-74
2022/06/19 00:08:20;;;;;;;371.03;241.60;;;;;;;18.87;82.29;100006.53;411750;24;746;-74
2022/06/19 00:08:30;;;;;;;374.80;245.43;;;;;;;18.86;82.06;100004.84;409655;24;1205;-74
2022/06/19 00:08:41;;;;;;;374.70;245.87;;;;;;;18.87;81.97;100003.88;409612;24;881;-74
2022/06/19 00:08:51;;;;;;;372.10;244.40;;;;;;;18.88;82.08;100006.44;409577;24;1053;-74
2022/06/19 00:09:03;;;;;;;371.87;244.57;;;;;;;18.87;82.18;100004.75;409815;24;964;-74
2022/06/19 00:09:14;;;;;;;369.88;240.70;;;;;;;18.85;82.21;100005.78;407809;24;766;-74
2022/06/19 00:09:25;;;;;;;368.40;240.27;;;;;;;18.84;81.97;100004.94;409834;24;1356;-74
2022/06/19 00:09:36;;;;;;;368.77;239.02;;;;;;;18.84;82.02;100001.44;411613;24;1487;-74
2022/06/19 00:09:46;;;;;;;366.57;236.37;;;;;;;18.84;82.08;100004.09;409767;24;976;-74
2022/06/19 00:09:57;;;;;;;366.77;234.52;;;;;;;18.84;81.90;100010.25;409977;24;882;-74
2022/06/19 00:10:08;;;;;;;364.87;232.27;;;;;;;18.82;82.38;100000.69;409838;24;913;-74
2022/06/19 00:10:18;;;;;;;366.02;237.95;;;;;;;18.81;82.04;99999.84;407938;24;999;-74
2022/06/19 00:10:29;;;;;;;364.52;237.07;;;;;;;18.82;82.26;99998.91;407926;24;904;-74
2022/06/19 00:10:39;;;;;;;366.77;239.50;;;;;;;18.81;82.34;100001.66;411824;24;944;-74
2022/06/19 00:10:50;;;;;;;365.92;236.45;;;;;;;18.79;82.55;99996.47;411768;24;1227;-74
2022/06/19 00:11:01;;;;;;;366.83;236.23;;;;;;;18.82;82.37;100001.56;411878;24;832;-74
2022/06/19 00:11:11;;;;;;;366.33;236.52;;;;;;;18.82;82.15;100001.56;411613;24;875;-74
2022/06/19 00:11:22;;;;;;;365.30;235.30;;;;;;;18.79;82.29;100004.41;411747;24;811;-74
2022/06/19 00:11:33;;;;;;;367.83;240.73;;;;;;;18.78;82.22;100000.06;411394;24;987;-74
2022/06/19 00:11:44;;;;;;;366.50;242.68;;;;;;;18.77;82.44;100008.97;411357;24;1277;-74
2022/06/19 00:11:55;;;;;;;368.00;244.93;;;;;;;18.74;82.42;100006.53;409879;24;1343;-74
2022/06/19 00:12:06;;;;;;;368.52;243.05;;;;;;;18.78;82.50;100008.03;411839;24;750;-74
2022/06/19 00:12:18;;;;;;;369.52;239.15;;;;;;;18.77;82.52;100000.16;411551;24;988;-74
2022/06/19 00:12:28;;;;;;;366.48;235.02;;;;;;;18.79;82.59;100014.16;409893;24;821;-74
2022/06/19 00:12:39;;;;;;;366.20;240.30;;;;;;;18.79;82.62;100007.06;409850;24;833;-74
2022/06/19 00:12:49;;;;;;;363.38;239.07;;;;;;;18.79;82.59;100012.38;409947;24;731;-74
2022/06/19 00:13:00;;;;;;;364.97;242.47;;;;;;;18.79;82.57;100012.38;408030;24;957;-74
2022/06/19 00:13:10;;;;;;;367.55;242.80;;;;;;;18.79;82.59;100001.75;411691;24;1358;-74
2022/06/19 00:13:20;;;;;;;368.70;241.93;;;;;;;18.78;82.59;100002.72;413511;23;1274;-74
2022/06/19 00:13:31;;;;;;;367.87;240.27;;;;;;;18.74;82.44;100009.19;413654;23;1313;-74
2022/06/19 00:13:41;;;;;;;366.20;241.75;;;;;;;18.72;82.64;100011.09;411706;24;1591;-74
2022/06/19 00:13:52;;;;;;;364.17;238.90;;;;;;;18.71;82.53;100006.72;413538;23;1059;-74
2022/06/19 00:14:03;;;;;;;362.58;232.38;;;;;;;18.69;82.80;100000.69;413835;23;945;-74
2022/06/19 00:14:13;;;;;;;364.17;234.00;;;;;;;18.68;82.81;99999.00;415694;23;843;-74
2022/06/19 00:14:24;;;;;;;369.70;243.47;;;;;;;18.70;83.04;100018.28;413767;23;796;-74
2022/06/19 00:14:35;;;;;;;371.63;243.07;;;;;;;18.69;83.20;100011.28;411806;24;906;-74
2022/06/19 00:14:45;;;;;;;369.02;238.07;;;;;;;18.67;83.13;100002.59;409885;24;841;-74
2022/06/19 00:14:55;;;;;;;366.47;236.33;;;;;;;18.69;83.31;100000.69;407906;24;807;-74
2022/06/19 00:15:07;;;;;;;363.95;235.90;;;;;;;18.70;83.41;100002.38;408047;24;834;-74
2022/06/19 00:15:17;;;;;;;366.40;236.82;;;;;;;18.71;83.13;100006.72;409776;24;849;-74
2022/06/19 00:15:28;;;;;;;366.70;234.20;;;;;;;18.70;83.22;100002.38;411636;24;1237;-74
2022/06/19 00:15:39;;;;;;;369.98;241.75;;;;;;;18.72;83.31;100007.59;411757;24;892;-74
2022/06/19 00:15:49;;;;;;;371.53;246.20;;;;;;;18.73;83.23;100012.78;409843;24;831;-74
2022/06/19 00:15:59;;;;;;;368.57;244.67;;;;;;;18.73;82.99;100007.47;409880;24;907;-74
2022/06/19 00:16:10;;;;;;;369.30;245.00;;;;;;;18.73;82.97;99996.03;409397;23;1426;-74
2022/06/19 00:16:20;;;;;;;366.60;239.77;;;;;;;18.74;82.91;100008.31;409704;24;893;-74
2022/06/19 00:16:31;;;;;;;366.85;238.18;;;;;;;18.70;83.00;100002.38;409870;24;951;-74
2022/06/19 00:16:41;;;;;;;371.13;241.60;;;;;;;18.69;82.83;100000.69;409757;24;1276;-74
2022/06/19 00:16:52;;;;;;;370.90;240.95;;;;;;;18.67;82.92;100005.25;409849;24;897;-74
2022/06/19 00:17:05;;;;;;;370.70;240.93;;;;;;;18.68;83.01;100006.94;409897;24;881;-74
2022/06/19 00:17:16;;;;;;;368.75;239.95;;;;;;;18.68;82.94;100001.63;409659;24;818;-74
2022/06/19 00:17:26;;;;;;;371.00;240.68;;;;;;;18.68;82.85;100000.78;409731;24;1497;-74
2022/06/19 00:17:37;;;;;;;372.07;242.70;;;;;;;18.64;82.92;100002.78;409763;24;987;-74
2022/06/19 00:17:48;;;;;;;372.00;241.75;;;;;;;18.67;83.04;100001.75;411807;24;900;-74
2022/06/19 00:17:58;;;;;;;373.70;246.45;;;;;;;18.66;82.90;100006.19;411790;24;1369;-74
2022/06/19 00:18:09;;;;;;;375.83;246.83;;;;;;;18.66;82.79;100006.19;413870;23;816;-74
2022/06/19 00:18:19;;;;;;;373.42;245.23;;;;;;;18.67;82.90;99999.94;411692;24;1324;-74
2022/06/19 00:18:30;;;;;;;369.93;239.30;;;;;;;18.69;83.01;100007.78;409736;24;1261;-74
2022/06/19 00:18:40;;;;;;;366.35;233.60;;;;;;;18.69;82.86;99999.84;409893;24;946;-74
2022/06/19 00:18:50;;;;;;;367.53;236.57;;;;;;;18.71;82.81;100009.38;407901;24;1108;-74
2022/06/19 00:19:01;;;;;;;370.27;242.50;;;;;;;18.70;82.84;100002.38;407893;24;804;-74
2022/06/19 00:19:11;;;;;;;373.27;246.47;;;;;;;18.69;82.68;100003.34;409946;24;972;-74
2022/06/19 00:19:22;;;;;;;370.63;241.57;;;;;;;18.69;82.62;100006.00;409680;24;861;-73
2022/06/19 00:19:32;;;;;;;369.03;241.23;;;;;;;18.70;82.57;100004.19;409916;24;815;-74
2022/06/19 00:19:43;;;;;;;369.83;242.80;;;;;;;18.69;82.90;100003.34;409853;24;854;-74
2022/06/19 00:19:53;;;;;;;372.73;246.33;;;;;;;18.68;82.61;99996.34;409740;24;1584;-74
2022/06/19 00:20:04;;;;;;;370.05;239.40;;;;;;;18.70;82.55;100001.53;409771;24;1430;-74
2022/06/19 00:20:15;;;;;;;368.10;238.65;;;;;;;18.70;82.57;100001.53;411773;24;849;-74
2022/06/19 00:20:25;;;;;;;367.87;237.00;;;;;;;18.70;82.74;100002.38;411628;24;1268;-74
2022/06/19 00:20:35;;;;;;;367.90;239.88;;;;;;;18.70;82.71;100002.38;409781;24;1236;-74
2022/06/19 00:20:46;;;;;;;368.00;240.60;;;;;;;18.71;82.83;99998.78;410715;24;1180;-74
2022/06/19 00:20:56;;;;;;;368.23;240.57;;;;;;;18.72;82.63;99994.31;411721;23;972;-74
2022/06/19 00:21:08;;;;;;;369.77;240.23;;;;;;;18.72;82.82;100004.94;413598;23;953;-74
2022/06/19 00:21:18;;;;;;;368.73;235.65;;;;;;;18.72;82.85;100003.13;411707;24;1902;-74
2022/06/19 00:21:29;;;;;;;368.40;234.40;;;;;;;18.72;82.86;99995.16;411698;24;1324;-74
2022/06/19 00:21:40;;;;;;;364.53;232.77;;;;;;;18.73;82.57;100004.81;411859;24;1297;-74
2022/06/19 00:21:50;;;;;;;363.17;233.57;;;;;;;18.74;82.20;99998.56;411683;24;1397;-74
2022/06/19 00:22:01;;;;;;;364.42;233.30;;;;;;;18.73;82.64;99999.53;413780;23;1039;-74
2022/06/19 00:22:11;;;;;;;364.25;232.50;;;;;;;18.74;82.62;99998.56;409782;24;880;-74
2022/06/19 00:22:22;;;;;;;365.07;234.43;;;;;;;18.74;82.75;99998.56;411932;24;827;-74
2022/06/19 00:22:32;;;;;;;362.85;235.30;;;;;;;18.74;82.58;100003.03;413776;23;781;-74
2022/06/19 00:22:42;;;;;;;363.23;236.17;;;;;;;18.74;82.73;100000.38;411803;24;850;-74
2022/06/19 00:22:53;;;;;;;362.93;236.97;;;;;;;18.75;82.72;99997.63;411676;24;850;-74
2022/06/19 00:23:03;;;;;;;367.50;249.13;;;;;;;18.75;82.69;99994.13;411748;24;808;-74
2022/06/19 00:23:14;;;;;;;369.00;253.93;;;;;;;18.75;82.68;99994.97;411781;24;1007;-74
2022/06/19 00:23:24;;;;;;;370.00;254.38;;;;;;;18.76;82.87;99996.66;411781;23;1359;-74
2022/06/19 00:23:35;;;;;;;366.97;244.53;;;;;;;18.74;82.63;99998.56;411655;24;861;-74
2022/06/19 00:23:46;;;;;;;365.65;240.07;;;;;;;18.74;82.79;99998.56;409847;24;989;-74
2022/06/19 00:23:56;;;;;;;366.55;236.80;;;;;;;18.73;82.88;99996.88;411700;24;1111;-74
2022/06/19 00:24:06;;;;;;;367.50;236.17;;;;;;;18.73;82.92;99999.53;411794;24;802;-74
2022/06/19 00:24:17;;;;;;;368.30;238.43;;;;;;;18.72;82.69;100000.47;409661;24;1310;-74
2022/06/19 00:24:29;;;;;;;370.53;245.03;;;;;;;18.71;82.89;99993.47;411711;24;1422;-74
2022/06/19 00:24:39;;;;;;;372.67;252.38;;;;;;;18.71;83.01;99997.94;411836;24;914;-74
2022/06/19 00:24:50;;;;;;;368.75;245.15;;;;;;;18.69;82.84;99990.06;411729;24;821;-74
2022/06/19 00:25:00;;;;;;;367.90;244.27;;;;;;;18.68;82.78;99988.38;411702;24;1194;-74
2022/06/19 00:25:11;;;;;;;367.85;242.57;;;;;;;18.68;83.09;99995.50;409697;24;1191;-74
2022/06/19 00:25:21;;;;;;;371.33;254.93;;;;;;;18.68;83.13;99993.69;411786;24;884;-74
2022/06/19 00:25:31;;;;;;;368.63;254.57;;;;;;;18.66;83.26;99987.63;409878;24;893;-74
2022/06/19 00:25:42;;;;;;;367.50;253.23;;;;;;;18.68;83.04;99999.00;409854;24;886;-74
2022/06/19 00:25:52;;;;;;;365.63;243.83;;;;;;;18.69;83.04;99992.72;413602;23;1179;-74
2022/06/19 00:26:03;;;;;;;364.77;238.35;;;;;;;18.70;83.11;99998.88;413729;23;866;-74
2022/06/19 00:26:14;;;;;;;364.80;235.20;;;;;;;18.70;82.99;99999.72;413486;23;1260;-74
2022/06/19 00:26:24;;;;;;;364.92;235.82;;;;;;;18.68;83.21;99996.34;411785;24;810;-74
2022/06/19 00:26:34;;;;;;;366.33;239.98;;;;;;;18.68;83.17;99991.03;409830;24;985;-74
2022/06/19 00:26:45;;;;;;;366.00;243.13;;;;;;;18.65;83.39;99998.34;409784;24;1190;-74
2022/06/19 00:26:56;;;;;;;367.40;245.43;;;;;;;18.64;83.29;100001.94;411596;24;1173;-74
2022/06/19 00:27:06;;;;;;;370.03;251.77;;;;;;;18.61;83.14;99995.09;411670;24;861;-74
2022/06/19 00:27:16;;;;;;;372.48;259.73;;;;;;;18.62;83.44;100010.03;413720;23;842;-74
2022/06/19 00:27:27;;;;;;;370.73;254.83;;;;;;;18.60;83.42;99996.03;413782;23;857;-74
2022/06/19 00:27:40;;;;;;;370.45;246.13;;;;;;;18.62;83.74;99996.78;411778;24;895;-74
2022/06/19 00:27:50;;;;;;;368.85;238.65;;;;;;;18.62;83.47;100003.88;409608;24;1290;-74
2022/06/19 00:28:01;;;;;;;371.73;246.07;;;;;;;18.61;83.58;100003.03;413480;23;813;-74
2022/06/19 00:28:12;;;;;;;373.48;256.77;;;;;;;18.62;83.99;99999.44;411808;24;1351;-74
2022/06/19 00:28:23;;;;;;;377.25;269.83;;;;;;;18.61;83.67;100005.69;409838;24;1289;-74
2022/06/19 00:28:33;;;;;;;376.30;271.45;;;;;;;18.62;83.49;100006.53;410036;24;899;-74
2022/06/19 00:28:46;;;;;;;373.77;258.57;;;;;;;18.64;83.61;100007.25;411816;24;966;-74
2022/06/19 00:28:57;;;;;;;369.42;242.02;;;;;;;18.64;83.38;100000.16;411692;24;1087;-74
2022/06/19 00:29:07;;;;;;;369.52;241.50;;;;;;;18.65;83.38;100003.66;411730;24;1368;-74
2022/06/19 00:29:18;;;;;;;368.80;243.98;;;;;;;18.65;83.42;100004.50;411701;24;926;-75
2022/06/19 00:29:28;;;;;;;369.87;251.47;;;;;;;18.66;83.33;100005.34;409811;24;817;-74
2022/06/19 00:29:39;;;;;;;370.58;250.88;;;;;;;18.65;83.29;100012.44;411758;24;851;-74
2022/06/19 00:29:49;;;;;;;369.90;249.03;;;;;;;18.62;83.35;100010.03;411765;24;1279;-74
2022/06/19 00:30:00;;;;;;;371.13;250.47;;;;;;;18.64;83.29;100013.41;409881;24;1229;-74
2022/06/19 00:30:11;;;;;;;370.07;253.17;;;;;;;18.63;83.42;100006.41;408633;24;935;-74
2022/06/19 00:30:22;;;;;;;369.98;252.18;;;;;;;18.61;83.28;100008.34;409741;24;948;-74
2022/06/19 00:30:32;;;;;;;371.63;247.47;;;;;;;18.60;83.31;100011.94;413783;23;816;-74
2022/06/19 00:30:42;;;;;;;372.95;249.80;;;;;;;18.61;83.34;100003.03;413604;23;1425;-74
2022/06/19 00:30:53;;;;;;;372.47;252.63;;;;;;;18.60;83.25;99999.53;411799;24;871;-74
2022/06/19 00:31:03;;;;;;;372.50;259.58;;;;;;;18.60;83.58;100004.00;409736;24;1416;-74
2022/06/19 00:31:14;;;;;;;373.47;266.53;;;;;;;18.58;83.69;100008.50;413228;23;1171;-74
2022/06/19 00:31:26;;;;;;;372.48;263.60;;;;;;;18.60;83.63;100006.63;409805;24;1197;-74
2022/06/19 00:31:37;;;;;;;370.73;256.85;;;;;;;18.59;83.49;100010.22;409690;24;1294;-74
2022/06/19 00:31:47;;;;;;;375.15;257.55;;;;;;;18.60;83.26;100001.34;411786;24;786;-74
2022/06/19 00:31:58;;;;;;;378.83;260.97;;;;;;;18.60;83.64;100007.50;409843;24;850;-74
2022/06/19 00:32:08;;;;;;;376.08;254.23;;;;;;;18.59;83.41;100005.75;411707;24;1080;-74
2022/06/19 00:32:20;;;;;;;374.50;250.47;;;;;;;18.59;83.39;100008.41;413600;23;1485;-74
2022/06/19 00:32:30;;;;;;;373.20;245.48;;;;;;;18.60;83.58;100006.63;413701;23;908;-74
2022/06/19 00:32:41;;;;;;;375.27;250.20;;;;;;;18.58;83.49;100006.72;413684;23;913;-74
2022/06/19 00:32:51;;;;;;;377.50;260.42;;;;;;;18.59;83.49;100003.09;413629;23;1123;-74
2022/06/19 00:33:02;;;;;;;376.67;268.40;;;;;;;18.56;83.46;100002.47;413707;23;940;-74
2022/06/19 00:33:12;;;;;;;374.75;263.92;;;;;;;18.58;83.54;100003.22;413662;23;956;-74
2022/06/19 00:33:23;;;;;;;372.92;254.00;;;;;;;18.58;83.53;100004.06;409731;24;1203;-74
2022/06/19 00:33:33;;;;;;;376.07;256.10;;;;;;;18.57;83.59;100006.81;411815;24;899;-74
2022/06/19 00:33:44;;;;;;;377.40;263.80;;;;;;;18.57;83.81;100001.50;409873;24;873;-74
2022/06/19 00:33:54;;;;;;;380.13;263.90;;;;;;;18.57;83.53;100001.50;409760;24;967;-74
2022/06/19 00:34:05;;;;;;;379.30;261.10;;;;;;;18.57;83.48;100001.50;411708;23;1190;-74
2022/06/19 00:34:15;;;;;;;377.73;250.13;;;;;;;18.55;83.59;100001.63;411705;24;942;-74
2022/06/19 00:34:26;;;;;;;373.83;242.85;;;;;;;18.53;83.77;100006.16;411717;23;1782;-74
2022/06/19 00:34:36;;;;;;;373.37;244.10;;;;;;;18.50;83.84;100001.06;413710;23;988;-74
2022/06/19 00:34:47;;;;;;;373.17;247.43;;;;;;;18.50;83.77;100000.22;411571;24;1435;-74
2022/06/19 00:34:57;;;;;;;374.70;253.00;;;;;;;18.52;83.99;100003.63;411831;24;823;-74
2022/06/19 00:35:08;;;;;;;375.38;249.35;;;;;;;18.53;83.90;100000.88;409717;24;1334;-74
2022/06/19 00:35:19;;;;;;;378.38;252.55;;;;;;;18.54;83.89;99996.41;409843;24;891;-74
2022/06/19 00:35:30;;;;;;;376.87;249.07;;;;;;;18.53;83.74;99994.72;407950;24;842;-74
2022/06/19 00:35:40;;;;;;;376.20;253.75;;;;;;;18.54;83.91;100002.56;411708;24;1229;-74
2022/06/19 00:35:50;;;;;;;376.70;260.48;;;;;;;18.55;83.84;100003.41;411671;24;1200;-74
2022/06/19 00:36:01;;;;;;;380.10;271.20;;;;;;;18.55;83.80;100001.63;411862;24;955;-74
2022/06/19 00:36:11;;;;;;;381.90;268.10;;;;;;;18.56;83.68;100002.47;411457;24;1166;-74
2022/06/19 00:36:25;;;;;;;379.38;259.50;;;;;;;18.55;83.80;99992.81;413561;23;1202;-74
2022/06/19 00:36:35;;;;;;;376.73;256.55;;;;;;;18.54;83.76;100002.56;411797;24;845;-74
2022/06/19 00:36:49;;;;;;;375.67;255.98;;;;;;;18.54;83.84;100002.56;411732;24;834;-74
2022/06/19 00:37:01;;;;;;;373.08;250.07;;;;;;;18.55;83.69;99990.16;409843;24;921;-74
2022/06/19 00:37:12;;;;;;;370.70;247.38;;;;;;;18.56;83.79;99991.84;409872;24;935;-74
2022/06/19 00:37:22;;;;;;;372.70;252.75;;;;;;;18.58;83.91;100000.56;409714;24;1180;-74
2022/06/19 00:37:34;;;;;;;375.00;257.40;;;;;;;18.57;83.74;100002.38;408082;24;838;-74
2022/06/19 00:37:46;;;;;;;376.98;257.63;;;;;;;18.56;83.71;99995.34;413569;23;1388;-74
2022/06/19 00:37:57;;;;;;;375.85;253.90;;;;;;;18.55;83.52;99993.66;413691;23;913;-74
2022/06/19 00:38:07;;;;;;;377.10;261.58;;;;;;;18.54;83.71;99996.41;411753;24;904;-74
2022/06/19 00:38:18;;;;;;;381.00;273.70;;;;;;;18.53;83.78;99989.41;409704;24;1342;-74
2022/06/19 00:38:28;;;;;;;382.63;279.93;;;;;;;18.54;84.00;99996.41;409800;24;857;-74
2022/06/19 00:38:39;;;;;;;380.50;271.20;;;;;;;18.54;83.84;99993.75;409655;24;951;-74
2022/06/19 00:38:49;;;;;;;375.48;256.80;;;;;;;18.56;83.70;99984.75;411674;24;1024;-74
2022/06/19 00:39:00;;;;;;;372.00;252.73;;;;;;;18.56;83.82;99986.56;411725;24;1078;-74
2022/06/19 00:39:10;;;;;;;373.77;253.83;;;;;;;18.58;83.93;99992.59;411879;24;909;-74
2022/06/19 00:39:21;;;;;;;375.97;257.27;;;;;;;18.57;83.88;99993.56;410676;24;801;-74
2022/06/19 00:39:32;;;;;;;373.33;253.77;;;;;;;18.56;83.64;99989.22;413388;23;1015;-74
2022/06/19 00:39:42;;;;;;;376.20;256.67;;;;;;;18.53;83.68;99984.13;413651;23;806;-74
2022/06/19 00:39:53;;;;;;;375.42;255.25;;;;;;;18.53;83.71;99989.41;409935;24;800;-74
2022/06/19 00:40:05;;;;;;;375.97;254.40;;;;;;;18.54;83.69;99991.13;409719;23;1377;-74
2022/06/19 00:40:15;;;;;;;372.42;253.48;;;;;;;18.52;83.66;99988.56;409838;24;985;-74
2022/06/19 00:40:27;;;;;;;373.35;255.38;;;;;;;18.54;83.80;99991.13;407905;24;1761;-74
2022/06/19 00:40:37;;;;;;;371.90;252.32;;;;;;;18.53;83.80;99989.41;407939;24;873;-74
2022/06/19 00:40:47;;;;;;;370.58;249.95;;;;;;;18.54;83.59;99996.41;411760;24;876;-74
2022/06/19 00:40:58;;;;;;;373.77;250.50;;;;;;;18.53;83.82;99990.25;411823;24;863;-74
2022/06/19 00:41:08;;;;;;;377.83;248.52;;;;;;;18.53;84.08;99998.22;411563;24;996;-74
2022/06/19 00:41:19;;;;;;;378.40;248.33;;;;;;;18.54;83.76;99986.66;413606;23;1925;-74
2022/06/19 00:41:39;;;;;;;381.42;263.75;;;;;;;18.53;83.94;99990.25;413680;23;883;-74
2022/06/19 00:41:50;;;;;;;380.15;280.98;;;;;;;18.53;83.80;99986.75;415583;23;1108;-74
2022/06/19 00:42:00;;;;;;;375.15;270.50;;;;;;;18.53;83.75;99984.97;413644;23;1318;-74
2022/06/19 00:42:12;;;;;;;377.20;263.90;;;;;;;18.54;83.86;99985.81;413599;23;1341;-74
2022/06/19 00:42:24;;;;;;;378.55;260.23;;;;;;;18.52;84.00;99993.00;411796;24;993;-74
2022/06/19 00:42:35;;;;;;;378.45;255.48;;;;;;;18.54;83.90;99996.41;411742;24;1444;-74
2022/06/19 00:42:45;;;;;;;375.33;251.75;;;;;;;18.53;84.09;99989.41;409775;24;1178;-74
2022/06/19 00:42:56;;;;;;;374.30;254.27;;;;;;;18.53;83.82;99987.63;409691;24;1644;-74
2022/06/19 00:43:06;;;;;;;372.70;252.65;;;;;;;18.54;84.03;99989.31;411769;24;1016;-74
2022/06/19 00:43:17;;;;;;;371.67;252.48;;;;;;;18.52;84.04;99993.00;409817;24;988;-75
2022/06/19 00:43:27;;;;;;;369.40;250.10;;;;;;;18.50;83.99;99994.91;408056;24;834;-74
2022/06/19 00:43:58;;;;;;;369.80;251.82;;;;;;;18.53;83.94;99994.72;411753;24;1232;-74
2022/06/19 00:44:10;;;;;;;366.75;246.75;;;;;;;18.52;84.02;99995.66;409782;24;842;-75
2022/06/19 00:44:21;;;;;;;369.27;251.25;;;;;;;18.50;84.14;99995.78;409965;24;795;-75
2022/06/19 00:44:32;;;;;;;370.92;256.67;;;;;;;18.50;84.15;99993.13;411761;24;1373;-74
2022/06/19 00:44:42;;;;;;;374.07;262.73;;;;;;;18.49;84.07;99996.72;413620;23;905;-74
2022/06/19 00:44:53;;;;;;;374.95;259.52;;;;;;;18.48;84.31;99991.53;409195;24;1012;-74
2022/06/19 00:45:03;;;;;;;375.73;256.57;;;;;;;18.47;84.35;99993.31;409793;24;809;-74
2022/06/19 00:45:40;;;;;;;374.83;256.23;;;;;;;18.45;84.54;99997.88;409849;24;1016;-74
2022/06/19 00:45:51;;;;;;;373.95;274.45;;;;;;;18.47;84.62;99992.47;411694;24;943;-74
2022/06/19 00:46:42;;;;;;;374.93;268.90;;;;;;;18.47;84.45;99998.63;411796;24;858;-74
2022/06/19 00:47:15;;;;;;;374.55;253.65;;;;;;;18.45;84.67;99994.38;411813;24;996;-74
2022/06/19 00:47:33;;;;;;;375.67;261.13;;;;;;;18.43;85.07;99998.94;411584;23;1296;-74
2022/06/19 00:47:43;;;;;;;377.98;262.23;;;;;;;18.41;85.01;99990.22;409631;24;1143;-74
2022/06/19 00:47:54;;;;;;;380.27;263.20;;;;;;;18.42;84.88;99999.88;408577;24;714;-74
2022/06/19 00:48:15;;;;;;;378.77;257.95;;;;;;;18.43;84.97;99996.28;409890;24;920;-74
2022/06/19 00:48:36;;;;;;;374.45;257.30;;;;;;;18.43;84.78;99996.28;409635;24;1438;-74
2022/06/19 00:48:47;;;;;;;379.15;263.17;;;;;;;18.42;84.97;99994.59;409714;24;870;-74
2022/06/19 00:48:57;;;;;;;378.47;259.30;;;;;;;18.41;84.79;99995.53;411813;24;1024;-74
2022/06/19 00:49:10;;;;;;;378.45;258.23;;;;;;;18.42;84.94;100002.53;415670;23;1200;-74
2022/06/19 00:49:39;;;;;;;378.33;257.15;;;;;;;18.42;85.05;99994.59;409841;24;1382;-74
2022/06/19 00:49:51;;;;;;;380.98;265.90;;;;;;;18.40;84.83;99993.84;411777;24;825;-74
2022/06/19 00:50:23;;;;;;;381.65;264.23;;;;;;;18.41;85.16;100000.84;411798;24;937;-74
2022/06/19 00:50:34;;;;;;;370.73;256.55;;;;;;;18.42;85.56;99999.88;415786;23;881;-74
2022/06/19 00:50:46;;;;;;;372.65;254.77;;;;;;;18.42;85.58;99998.09;413845;23;1267;-75
2022/06/19 00:50:59;;;;;;;375.60;255.65;;;;;;;18.44;85.24;99996.19;409951;24;833;-74
2022/06/19 00:51:10;;;;;;;378.10;263.48;;;;;;;18.47;85.26;99995.13;409872;24;917;-74
2022/06/19 00:51:20;;;;;;;379.25;268.42;;;;;;;18.47;85.16;99995.13;407984;24;1375;-74
2022/06/19 00:51:31;;;;;;;378.63;265.47;;;;;;;18.46;85.23;99993.44;409991;24;968;-74
2022/06/19 00:51:41;;;;;;;376.25;262.15;;;;;;;18.47;84.95;99995.97;413787;23;971;-74
2022/06/19 00:52:06;;;;;;;375.37;262.13;;;;;;;18.48;84.98;100002.13;413581;23;1391;-74
2022/06/19 00:52:23;;;;;;;378.92;266.33;;;;;;;18.49;84.91;99994.06;413659;23;944;-74
2022/06/19 00:52:35;;;;;;;376.02;259.65;;;;;;;18.51;84.72;99996.63;411831;24;793;-74
2022/06/19 00:52:45;;;;;;;373.35;257.15;;;;;;;18.49;85.00;99987.91;410130;24;1249;-74
2022/06/19 00:52:56;;;;;;;372.63;256.73;;;;;;;18.49;84.68;99987.91;411840;24;1095;-74
2022/06/19 00:53:09;;;;;;;375.07;254.47;;;;;;;18.49;84.75;99996.72;413746;23;971;-74